createdAt,value
2023-01-18T12:28:23.853Z,96189.69
2023-01-18T12:31:06.139Z,96196.94
2023-01-18T12:34:01.769Z,96195.19
2023-01-18T12:36:49.501Z,96204.97
2023-01-18T12:39:54.301Z,96189.75
2023-01-18T12:42:55.647Z,96196.06
2023-01-18T12:45:41.646Z,96202.88
2023-01-18T12:48:28.917Z,96199.34
2023-01-18T12:50:58.959Z,96198.03
2023-01-18T12:53:44.811Z,96197.00
2023-01-18T12:56:20.469Z,96198.63
2023-01-18T12:58:56.679Z,96196.38
2023-01-18T13:01:31.605Z,96190.09
2023-01-18T13:04:11.563Z,96192.97
2023-01-18T13:06:41.864Z,96200.94
2023-01-18T13:09:14.948Z,96200.94
2023-01-18T13:11:44.705Z,96204.44
2023-01-18T13:14:41.346Z,96202.88
2023-01-18T13:17:18.340Z,96197.69
2023-01-18T13:20:00.573Z,96205.22
2023-01-18T13:22:40.925Z,96212.22
2023-01-18T13:25:25.121Z,96205.22
2023-01-18T13:28:05.478Z,96213.13
2023-01-18T13:31:02.321Z,96210.75
2023-01-18T13:33:34.854Z,96217.03
2023-01-18T13:36:08.162Z,96222.47
2023-01-18T13:38:49.273Z,96222.91
2023-01-18T13:41:27.659Z,96229.38
2023-01-18T13:44:32.627Z,96226.69
2023-01-18T13:47:01.012Z,96247.41
2023-01-18T13:49:45.561Z,96235.38
2023-01-18T13:52:30.627Z,96241.03
2023-01-18T13:55:02.634Z,96240.56
2023-01-18T13:57:33.980Z,96248.75
2023-01-18T14:00:03.791Z,96255.03
2023-01-18T14:02:45.603Z,96246.50
2023-01-18T14:05:25.556Z,96247.41
2023-01-18T14:08:00.471Z,96251.38
2023-01-18T14:10:30.647Z,96256.66
2023-01-18T14:13:02.556Z,96259.50
2023-01-18T14:15:47.249Z,96271.28
2023-01-18T14:18:25.480Z,96267.56
2023-01-18T14:21:33.821Z,96269.25
2023-01-18T14:24:18.637Z,96270.47
2023-01-18T14:26:48.139Z,96272.28
2023-01-18T14:29:30.584Z,96277.88
2023-01-18T14:31:59.498Z,96285.88
2023-01-18T14:34:31.309Z,96278.34
2023-01-18T14:36:59.780Z,96281.06
2023-01-18T14:39:30.471Z,96285.09
2023-01-18T14:42:02.951Z,96286.75
2023-01-18T14:44:58.366Z,96282.06
2023-01-18T14:47:31.668Z,96289.78
2023-01-18T14:50:04.189Z,96293.72
2023-01-18T14:52:34.903Z,96279.75
2023-01-18T14:55:04.612Z,96288.78
2023-01-18T14:57:32.566Z,96294.72
2023-01-18T15:00:18.617Z,96293.97
2023-01-18T15:02:47.088Z,96299.16
2023-01-18T15:05:18.198Z,96314.31
2023-01-18T15:07:54.413Z,96307.72
2023-01-18T15:10:24.613Z,96300.78
2023-01-18T15:12:59.653Z,96323.59
2023-01-18T15:15:36.248Z,96311.56
2023-01-18T15:18:11.375Z,96319.34
2023-01-18T15:20:52.495Z,96328.78
2023-01-18T15:23:22.517Z,96315.31
2023-01-18T15:25:52.962Z,96327.81
2023-01-18T15:28:24.080Z,96328.16
2023-01-18T15:30:54.940Z,96323.84
2023-01-18T15:33:25.293Z,96339.53
2023-01-18T15:36:03.846Z,96339.59
2023-01-18T15:38:32.631Z,96334.94
2023-01-18T15:41:19.415Z,96322.06
2023-01-18T15:43:48.204Z,96345.84
2023-01-18T15:46:17.587Z,96341.91
2023-01-18T15:48:53.364Z,96335.78
2023-01-18T15:51:22.993Z,96348.47
2023-01-18T15:53:56.701Z,96355.19
2023-01-18T15:56:33.055Z,96350.13
2023-01-18T15:59:07.108Z,96353.97
2023-01-18T16:01:35.961Z,96359.44
2023-01-18T16:04:12.168Z,96364.25
2023-01-18T16:06:40.779Z,96364.00
2023-01-18T16:09:12.906Z,96369.47
2023-01-18T16:11:41.408Z,96369.06
2023-01-18T16:14:38.623Z,96374.53
2023-01-18T16:17:20.378Z,96367.56
2023-01-18T16:19:57.873Z,96371.97
2023-01-18T16:22:36.818Z,96374.84
2023-01-18T16:25:10.753Z,96383.78
2023-01-18T16:27:54.096Z,96379.38
2023-01-18T16:30:34.240Z,96390.41
2023-01-18T16:33:18.048Z,96387.19
2023-01-18T16:35:46.415Z,96402.13
2023-01-18T16:38:16.691Z,96402.09
2023-01-18T16:40:47.385Z,96396.75
2023-01-18T16:43:18.741Z,96410.94
2023-01-18T16:45:48.913Z,96416.53
2023-01-18T16:48:26.360Z,96411.09
2023-01-18T16:50:56.417Z,96415.34
2023-01-18T16:53:24.835Z,96407.50
2023-01-18T16:55:52.597Z,96418.38
2023-01-18T16:58:21.783Z,96411.69
2023-01-18T17:01:01.115Z,96420.72
2023-01-18T17:03:29.731Z,96427.84
2023-01-18T17:05:57.701Z,96426.28
2023-01-18T17:08:25.944Z,96429.81
2023-01-18T17:10:55.057Z,96430.25
2023-01-18T17:13:24.115Z,96422.81
2023-01-18T17:15:53.781Z,96425.94
2023-01-18T17:18:26.051Z,96424.81
2023-01-18T17:20:55.375Z,96431.47
2023-01-18T17:23:26.003Z,96432.66
2023-01-18T17:25:56.650Z,96424.16
2023-01-18T17:28:27.781Z,96448.47
2023-01-18T17:30:57.006Z,96442.56
2023-01-18T17:33:27.541Z,96443.06
2023-01-18T17:35:56.011Z,96446.94
2023-01-18T17:38:28.236Z,96427.44
2023-01-18T17:40:58.791Z,96446.19
2023-01-18T17:43:35.057Z,96436.78
2023-01-18T17:46:04.662Z,96449.72
2023-01-18T17:48:33.546Z,96452.41
2023-01-18T17:51:01.857Z,96444.19
2023-01-18T17:53:30.350Z,96454.00
2023-01-18T17:55:58.376Z,96452.44
2023-01-18T17:58:28.000Z,96451.25
2023-01-18T18:00:55.923Z,96445.38
2023-01-18T18:03:24.458Z,96433.53
2023-01-18T18:05:58.472Z,96436.28
2023-01-18T18:08:27.319Z,96424.94
2023-01-18T18:10:55.802Z,96427.34
2023-01-18T18:13:24.751Z,96442.34
2023-01-18T18:15:54.804Z,96446.69
2023-01-18T18:18:25.086Z,96452.59
2023-01-18T18:21:01.459Z,96443.56
2023-01-18T18:23:32.415Z,96442.78
2023-01-18T18:26:01.825Z,96450.22
2023-01-18T18:28:30.799Z,96456.53
2023-01-18T18:30:59.772Z,96457.28
2023-01-18T18:33:29.678Z,96442.75
2023-01-18T18:35:59.395Z,96442.09
2023-01-18T18:38:27.760Z,96447.94
2023-01-18T18:41:07.435Z,96456.97
2023-01-18T18:43:36.460Z,96458.50
2023-01-18T18:46:04.419Z,96460.84
2023-01-18T18:48:32.750Z,96454.56
2023-01-18T18:51:00.939Z,96454.19
2023-01-18T18:53:37.638Z,96452.59
2023-01-18T18:56:09.926Z,96465.19
2023-01-18T18:58:42.638Z,96459.69
2023-01-18T19:01:30.580Z,96461.28
2023-01-18T19:03:59.604Z,96464.50
2023-01-18T19:06:28.710Z,96466.03
2023-01-18T19:08:57.635Z,96468.16
2023-01-18T19:11:26.892Z,96472.00
2023-01-18T19:13:57.013Z,96466.13
2023-01-18T19:16:26.252Z,96458.25
2023-01-18T19:18:55.096Z,96462.97
2023-01-18T19:21:23.092Z,96479.38
2023-01-18T19:23:51.927Z,96459.75
2023-01-18T19:26:20.052Z,96463.72
2023-01-18T19:28:48.572Z,96464.94
2023-01-18T19:31:16.736Z,96486.50
2023-01-18T19:33:45.041Z,96481.03
2023-01-18T19:36:15.780Z,96479.09
2023-01-18T19:38:48.040Z,96490.84
2023-01-18T19:41:19.403Z,96495.19
2023-01-18T19:43:51.116Z,96497.94
2023-01-18T19:46:20.744Z,96501.09
2023-01-18T19:48:49.206Z,96492.06
2023-01-18T19:51:22.458Z,96495.97
2023-01-18T19:53:56.070Z,96501.44
2023-01-18T19:56:29.314Z,96504.59
2023-01-18T19:58:58.156Z,96501.50
2023-01-18T20:01:36.238Z,96496.38
2023-01-18T20:04:08.389Z,96497.97
2023-01-18T20:06:40.113Z,96492.09
2023-01-18T20:09:18.393Z,96512.94
2023-01-18T20:11:47.564Z,96502.69
2023-01-18T20:14:16.805Z,96511.72
2023-01-18T20:16:46.309Z,96503.84
2023-01-18T20:19:16.665Z,96509.75
2023-01-18T20:21:44.619Z,96517.59
2023-01-18T20:24:13.201Z,96523.94
2023-01-18T20:26:42.175Z,96533.72
2023-01-18T20:29:13.461Z,96527.44
2023-01-18T20:31:48.487Z,96532.91
2023-01-18T20:34:19.571Z,96540.75
2023-01-18T20:36:50.608Z,96530.97
2023-01-18T20:39:20.825Z,96532.94
2023-01-18T20:41:50.314Z,96541.56
2023-01-18T20:44:19.474Z,96534.09
2023-01-18T20:46:49.821Z,96536.44
2023-01-18T20:49:24.521Z,96541.94
2023-01-18T20:51:53.184Z,96546.25
2023-01-18T20:54:22.087Z,96547.84
2023-01-18T20:56:51.527Z,96543.53
2023-01-18T20:59:21.087Z,96544.75
2023-01-18T21:01:49.117Z,96545.94
2023-01-18T21:04:17.427Z,96547.88
2023-01-18T21:06:46.816Z,96551.81
2023-01-18T21:09:15.094Z,96552.22
2023-01-18T21:11:43.143Z,96544.78
2023-01-18T21:14:12.049Z,96523.63
2023-01-18T21:16:40.303Z,96541.63
2023-01-18T21:19:10.536Z,96544.00
2023-01-18T21:21:39.477Z,96537.69
2023-01-18T21:24:08.051Z,96537.72
2023-01-18T21:26:36.711Z,96536.53
2023-01-18T21:29:06.455Z,96549.88
2023-01-18T21:31:35.601Z,96550.22
2023-01-18T21:34:05.087Z,96553.00
2023-01-18T21:36:32.956Z,96548.28
2023-01-18T21:39:01.204Z,96556.16
2023-01-18T21:41:47.681Z,96550.66
2023-01-18T21:44:34.267Z,96546.34
2023-01-18T21:47:02.525Z,96559.72
2023-01-18T21:50:15.904Z,96560.88
2023-01-18T21:52:57.321Z,96547.97
2023-01-18T21:55:26.210Z,96557.38
2023-01-18T21:58:12.586Z,96560.16
2023-01-18T22:00:41.377Z,96559.75
2023-01-18T22:03:10.092Z,96552.69
2023-01-18T22:05:40.888Z,96558.19
2023-01-18T22:08:10.542Z,96558.97
2023-01-18T22:10:40.807Z,96556.59
2023-01-18T22:13:08.749Z,96558.59
2023-01-18T22:15:37.040Z,96557.00
2023-01-18T22:18:06.170Z,96546.44
2023-01-18T22:20:34.414Z,96559.78
2023-01-18T22:23:02.650Z,96546.88
2023-01-18T22:25:32.563Z,96555.88
2023-01-18T22:28:01.141Z,96561.38
2023-01-18T22:30:30.849Z,96552.00
2023-01-18T22:32:58.902Z,96555.13
2023-01-18T22:35:27.162Z,96568.50
2023-01-18T22:37:55.066Z,96566.94
2023-01-18T22:40:23.215Z,96559.09
2023-01-18T22:42:52.362Z,96577.91
2023-01-18T22:45:21.834Z,96577.13
2023-01-18T22:47:50.723Z,96581.44
2023-01-18T22:50:19.975Z,96586.53
2023-01-18T22:52:48.165Z,96577.13
2023-01-18T22:55:17.541Z,96585.34
2023-01-18T22:57:45.431Z,96591.63
2023-01-18T23:00:14.065Z,96589.69
2023-01-18T23:02:42.045Z,96590.06
2023-01-18T23:05:10.323Z,96586.94
2023-01-18T23:07:38.907Z,96586.53
2023-01-18T23:10:07.242Z,96578.31
2023-01-18T23:12:35.346Z,96566.53
2023-01-18T23:15:21.804Z,96584.19
2023-01-18T23:17:50.284Z,96593.56
2023-01-18T23:20:20.123Z,96596.75
2023-01-18T23:22:48.175Z,96597.50
2023-01-18T23:25:16.838Z,96603.78
2023-01-18T23:27:45.044Z,96608.09
2023-01-18T23:30:14.340Z,96597.13
2023-01-18T23:32:42.541Z,96588.09
2023-01-18T23:35:11.203Z,96610.84
2023-01-18T23:37:39.269Z,96613.59
2023-01-18T23:40:27.219Z,96611.63
2023-01-18T23:43:13.646Z,96612.81
2023-01-18T23:46:01.801Z,96610.84
2023-01-18T23:48:48.937Z,96617.09
2023-01-18T23:51:35.807Z,96599.06
2023-01-18T23:54:19.087Z,96603.75
2023-01-18T23:56:48.167Z,96606.13
2023-01-18T23:59:15.993Z,96613.19
